Time;durP1;ratioP1;P1;durP2;ratioP2;P2;SDS_P1;SDS_P2;PMS_P1;PMS_P2;Temp;Humidity;BMP_temperature;BMP_pressure;BME280_temperature;BME280_humidity;BME280_pressure;Samples;Min_cycle;Max_cycle;Signal;HPM_P1;HPM_P2
2023/08/21 06:00:47;;;;;;;28.65;19.58;;;21.60;99.90;;;;;;5072303;27;20628;-89
2023/08/21 06:03:13;;;;;;;21.58;18.52;;;21.30;99.90;;;;;;5070066;28;20177;-89
2023/08/21 06:05:39;;;;;;;21.65;18.23;;;21.30;99.90;;;;;;5070861;28;20255;-89
2023/08/21 06:08:05;;;;;;;21.10;18.90;;;21.40;99.90;;;;;;5069804;28;20181;-90
2023/08/21 06:10:34;;;;;;;19.60;17.80;;;21.50;99.90;;;;;;5070120;28;20215;-90
2023/08/21 06:12:59;;;;;;;20.88;18.88;;;21.60;99.90;;;;;;5069626;28;20178;-90
2023/08/21 06:15:25;;;;;;;19.23;17.48;;;21.60;99.90;;;;;;5069563;28;20177;-89
2023/08/21 06:17:51;;;;;;;20.40;18.33;;;21.70;99.90;;;;;;5070100;28;20178;-89
2023/08/21 06:20:18;;;;;;;19.98;18.17;;;21.80;99.90;;;;;;5069325;28;20652;-90
2023/08/21 06:22:44;;;;;;;18.92;17.17;;;22.00;99.90;;;;;;5070088;28;20231;-90
2023/08/21 06:25:10;;;;;;;21.50;18.52;;;22.10;99.90;;;;;;5069156;28;20181;-90
2023/08/21 06:27:35;;;;;;;18.75;17.17;;;22.30;99.90;;;;;;5069520;28;20197;-90
2023/08/21 06:30:01;;;;;;;19.52;17.50;;;22.30;99.90;;;;;;5069112;28;20402;-90
2023/08/21 06:32:27;;;;;;;18.75;17.05;;;22.50;99.90;;;;;;5069919;28;20205;-90
2023/08/21 06:34:52;;;;;;;17.27;15.57;;;22.60;99.90;;;;;;5068899;28;20184;-90
2023/08/21 06:37:18;;;;;;;16.58;15.07;;;22.80;99.90;;;;;;5069160;28;20193;-89
2023/08/21 06:39:43;;;;;;;16.05;14.65;;;22.90;99.90;;;;;;5069242;28;20189;-89
2023/08/21 06:42:10;;;;;;;16.67;14.98;;;23.00;99.90;;;;;;5069312;28;20174;-89
2023/08/21 06:44:35;;;;;;;18.92;15.10;;;23.10;99.90;;;;;;5068887;28;20189;-89
2023/08/21 06:47:01;;;;;;;18.13;14.00;;;23.20;99.90;;;;;;5068794;28;20198;-89
2023/08/21 06:49:27;;;;;;;14.75;13.45;;;23.30;99.90;;;;;;5069207;28;20197;-89
2023/08/21 06:51:52;;;;;;;15.30;13.70;;;23.40;99.90;;;;;;5068658;28;20228;-90
2023/08/21 06:54:18;;;;;;;15.82;14.32;;;23.50;99.90;;;;;;5069120;28;20177;-89
2023/08/21 06:56:44;;;;;;;13.15;11.85;;;23.50;99.90;;;;;;5069491;28;20566;-89
2023/08/21 06:59:10;;;;;;;14.23;13.00;;;23.70;99.90;;;;;;5069211;28;20215;-89
2023/08/21 07:01:35;;;;;;;14.10;12.80;;;23.80;99.90;;;;;;5069704;28;20651;-89
2023/08/21 07:04:01;;;;;;;14.68;13.10;;;23.90;99.90;;;;;;5068930;28;20182;-90
2023/08/21 07:06:31;;;;;;;13.73;12.30;;;24.00;99.90;;;;;;5068703;28;20236;-90
2023/08/21 07:08:56;;;;;;;13.55;12.25;;;24.10;99.90;;;;;;5068575;28;20230;-90
2023/08/21 07:11:22;;;;;;;13.10;11.60;;;24.30;99.90;;;;;;5057917;28;20170;-89
2023/08/21 07:13:49;;;;;;;14.25;12.63;;;24.40;99.90;;;;;;5054982;28;20174;-89
2023/08/21 07:16:14;;;;;;;17.02;12.00;;;24.50;99.90;;;;;;5055083;28;20190;-90
2023/08/21 07:18:40;;;;;;;14.50;12.50;;;24.50;99.90;;;;;;5055455;28;20531;-89
2023/08/21 07:21:06;;;;;;;16.33;11.75;;;24.70;99.90;;;;;;5055314;28;20189;-90
2023/08/21 07:23:32;;;;;;;13.18;11.65;;;24.80;99.90;;;;;;5055834;28;20253;-89
2023/08/21 07:25:58;;;;;;;13.23;11.90;;;24.80;99.90;;;;;;5055552;28;20686;-89
2023/08/21 07:28:24;;;;;;;13.70;12.10;;;25.00;99.90;;;;;;5055150;28;20178;-89
2023/08/21 07:30:58;;;;;;;13.27;11.93;;;25.00;99.90;;;;;;5054725;28;20208;-90
2023/08/21 07:33:24;;;;;;;13.98;11.43;;;25.10;99.90;;;;;;5055558;28;20177;-89
2023/08/21 07:35:59;;;;;;;13.18;10.63;;;25.20;99.90;;;;;;5055011;28;20198;-90
2023/08/21 07:38:25;;;;;;;15.57;11.25;;;25.20;99.90;;;;;;5054989;28;20209;-90
2023/08/21 07:40:51;;;;;;;14.98;10.98;;;25.30;99.90;;;;;;5054734;28;20181;-89
2023/08/21 07:43:16;;;;;;;12.88;11.25;;;25.30;99.90;;;;;;5055895;28;20170;-89
2023/08/21 07:45:42;;;;;;;12.95;11.52;;;25.40;99.90;;;;;;5055692;28;20199;-89
2023/08/21 07:48:07;;;;;;;17.55;11.25;;;25.50;99.90;;;;;;5055898;28;20174;-89
2023/08/21 07:50:33;;;;;;;11.88;10.68;;;25.60;99.90;;;;;;5054864;28;20173;-89
2023/08/21 07:52:59;;;;;;;11.88;10.68;;;25.70;99.90;;;;;;5054863;28;20176;-89
2023/08/21 07:55:24;;;;;;;11.07;10.07;;;25.80;99.90;;;;;;5054155;28;20185;-89
2023/08/21 07:57:50;;;;;;;12.07;10.35;;;25.90;99.90;;;;;;5054766;28;20186;-89
2023/08/21 08:00:16;;;;;;;15.57;9.93;;;25.90;99.90;;;;;;5054764;28;20204;-89
2023/08/21 08:02:43;;;;;;;15.10;10.25;;;26.10;99.90;;;;;;5055142;28;20174;-89
2023/08/21 08:05:09;;;;;;;13.50;10.90;;;26.20;99.90;;;;;;5054498;28;20192;-89
2023/08/21 08:07:35;;;;;;;11.25;9.45;;;26.30;99.90;;;;;;5054518;28;20272;-89
2023/08/21 08:10:00;;;;;;;10.75;9.65;;;26.40;99.90;;;;;;5054482;28;20677;-89
2023/08/21 08:12:26;;;;;;;11.25;9.85;;;26.40;99.90;;;;;;5054138;28;20197;-89
2023/08/21 08:14:52;;;;;;;10.65;9.63;;;26.50;99.90;;;;;;5054289;28;20175;-92
2023/08/21 08:17:17;;;;;;;12.02;9.48;;;26.50;99.90;;;;;;5054522;28;20195;-88
2023/08/21 08:19:43;;;;;;;10.48;9.55;;;26.40;99.90;;;;;;5055017;28;20173;-88
2023/08/21 08:22:09;;;;;;;17.20;10.07;;;26.40;99.90;;;;;;5053964;28;20174;-89
2023/08/21 08:24:34;;;;;;;12.13;9.38;;;26.60;99.90;;;;;;5053755;28;20184;-89
2023/08/21 08:27:03;;;;;;;11.98;9.43;;;26.60;99.90;;;;;;5054116;28;20198;-88
2023/08/21 08:29:29;;;;;;;10.57;9.43;;;26.70;99.90;;;;;;5055987;28;20194;-88
2023/08/21 08:31:55;;;;;;;10.65;9.77;;;26.80;99.90;;;;;;5054291;28;20232;-88
2023/08/21 08:34:21;;;;;;;14.20;9.65;;;26.80;99.90;;;;;;5053792;28;20186;-88
2023/08/21 08:36:46;;;;;;;10.55;9.63;;;26.90;99.90;;;;;;5053668;28;20239;-88
2023/08/21 08:39:12;;;;;;;10.82;9.88;;;27.00;99.90;;;;;;5053959;28;20189;-88
2023/08/21 08:42:06;;;;;;;12.65;9.40;;;27.00;99.90;;;;;;5053955;28;20210;-88
2023/08/21 08:44:38;;;;;;;12.43;9.20;;;26.90;99.90;;;;;;5051605;28;20192;-88
2023/08/21 08:47:04;;;;;;;10.57;9.55;;;27.10;99.90;;;;;;5053460;28;20190;-88
2023/08/21 08:49:31;;;;;;;10.20;9.15;;;27.20;99.90;;;;;;5054112;28;20212;-88
2023/08/21 08:51:58;;;;;;;9.95;9.00;;;27.30;99.90;;;;;;5054718;28;20178;-88
2023/08/21 08:54:25;;;;;;;10.38;9.27;;;27.30;99.90;;;;;;5053257;28;20178;-88
2023/08/21 08:56:51;;;;;;;10.70;9.60;;;27.40;99.90;;;;;;5053250;28;20197;-89
2023/08/21 08:59:17;;;;;;;9.52;8.70;;;27.40;99.90;;;;;;5053149;28;20205;-88
2023/08/21 09:01:43;;;;;;;9.20;8.30;;;27.40;99.90;;;;;;5053481;28;20182;-89
2023/08/21 09:04:10;;;;;;;13.10;8.57;;;27.40;99.90;;;;;;5052993;28;20178;-89
2023/08/21 09:06:36;;;;;;;13.40;8.77;;;27.50;99.90;;;;;;5053322;28;20201;-88
2023/08/21 09:09:01;;;;;;;11.60;8.50;;;27.60;99.90;;;;;;5053267;28;20289;-88
2023/08/21 09:11:27;;;;;;;9.75;8.40;;;27.70;99.90;;;;;;5053615;28;20198;-88
2023/08/21 09:13:55;;;;;;;10.00;8.98;;;27.70;99.90;;;;;;5053731;28;20499;-88
2023/08/21 09:16:23;;;;;;;14.40;8.75;;;27.80;99.90;;;;;;5053560;28;20552;-88
2023/08/21 09:18:56;;;;;;;9.32;8.45;;;27.80;99.90;;;;;;5052945;28;20205;-89
2023/08/21 09:21:24;;;;;;;12.40;8.63;;;27.90;99.90;;;;;;5053633;28;20170;-88
2023/08/21 09:24:00;;;;;;;9.13;7.40;;;28.00;99.90;;;;;;5053204;28;20296;-89
2023/08/21 09:26:34;;;;;;;10.70;7.63;;;28.10;99.90;;;;;;5052717;28;20201;-89
2023/08/21 09:29:04;;;;;;;7.88;7.18;;;28.20;99.90;;;;;;5053084;28;20197;-88
2023/08/21 09:31:33;;;;;;;8.18;6.88;;;28.30;99.90;;;;;;5052558;28;20261;-89
2023/08/21 09:34:04;;;;;;;7.55;6.85;;;28.30;99.90;;;;;;5053000;28;20165;-89
2023/08/21 09:36:30;;;;;;;7.68;6.35;;;28.50;99.90;;;;;;5053376;28;20194;-88
2023/08/21 09:38:56;;;;;;;8.32;6.65;;;28.60;99.90;;;;;;5053513;28;20169;-89
2023/08/21 09:41:23;;;;;;;12.93;7.03;;;28.60;99.90;;;;;;5052515;28;20169;-89
2023/08/21 09:43:50;;;;;;;8.48;6.53;;;28.60;99.90;;;;;;5052688;28;20182;-89
2023/08/21 09:46:17;;;;;;;14.43;6.20;;;28.70;99.90;;;;;;5052637;28;20610;-88
2023/08/21 09:48:47;;;;;;;7.45;6.82;;;28.70;99.90;;;;;;5052792;28;20201;-89
2023/08/21 09:51:13;;;;;;;18.23;6.43;;;28.70;99.90;;;;;;5052035;28;20170;-88
2023/08/21 09:53:40;;;;;;;8.35;6.60;;;28.70;99.90;;;;;;5052300;28;20177;-89
2023/08/21 09:56:07;;;;;;;6.60;6.00;;;28.80;99.90;;;;;;5052843;28;20198;-89
2023/08/21 09:58:32;;;;;;;9.90;6.35;;;28.90;99.70;;;;;;5052258;28;20269;-89
2023/08/21 10:00:59;;;;;;;7.72;6.57;;;28.90;99.90;;;;;;5052219;28;20212;-88
2023/08/21 10:03:26;;;;;;;7.30;5.97;;;28.90;99.90;;;;;;5052307;28;20182;-89
2023/08/21 10:05:55;;;;;;;7.70;5.95;;;29.00;99.70;;;;;;5052863;28;20205;-88
2023/08/21 10:08:24;;;;;;;6.45;5.60;;;29.00;98.60;;;;;;5052611;28;20184;-88
2023/08/21 10:10:50;;;;;;;8.43;6.10;;;29.10;98.80;;;;;;5052742;28;20186;-89
2023/08/21 10:13:16;;;;;;;9.00;5.78;;;29.20;98.40;;;;;;5054566;28;20184;-88
2023/08/21 10:15:42;;;;;;;6.53;5.35;;;29.10;98.70;;;;;;5053007;28;20198;-89
2023/08/21 10:18:25;;;;;;;8.93;5.25;;;29.20;97.60;;;;;;5052625;28;20212;-88
2023/08/21 10:20:53;;;;;;;7.32;5.53;;;29.20;96.50;;;;;;5055758;28;20260;-88
2023/08/21 10:23:27;;;;;;;10.68;5.60;;;29.20;96.10;;;;;;5053891;28;20173;-88
2023/08/21 10:26:01;;;;;;;6.25;4.95;;;29.30;95.60;;;;;;5052748;28;20659;-88
2023/08/21 10:28:51;;;;;;;6.75;5.30;;;29.30;95.90;;;;;;5053156;28;20625;-88
2023/08/21 10:31:39;;;;;;;6.45;4.80;;;29.30;95.80;;;;;;5053102;28;20653;-91
2023/08/21 10:34:10;;;;;;;5.40;4.75;;;29.40;94.00;;;;;;5053532;28;20184;-90
2023/08/21 10:36:44;;;;;;;6.68;4.60;;;29.50;94.50;;;;;;5055109;28;20198;-92
2023/08/21 10:39:24;;;;;;;5.30;4.70;;;29.60;93.70;;;;;;5053827;28;20575;-92
2023/08/21 10:42:03;;;;;;;7.65;4.43;;;29.50;92.80;;;;;;5053540;28;20177;-92
2023/08/21 10:44:41;;;;;;;4.97;4.38;;;29.70;92.70;;;;;;5052862;28;20189;-92
2023/08/21 10:47:19;;;;;;;4.97;4.43;;;29.80;91.90;;;;;;5055815;28;20675;-92
2023/08/21 10:49:46;;;;;;;5.75;5.15;;;29.90;92.40;;;;;;5056013;28;20208;-92
2023/08/21 10:52:12;;;;;;;5.88;5.15;;;30.00;93.50;;;;;;5056699;28;20184;-92
2023/08/21 10:54:50;;;;;;;7.80;5.05;;;30.00;93.10;;;;;;5056136;28;20181;-92
2023/08/21 10:57:16;;;;;;;12.32;5.32;;;30.10;93.20;;;;;;5055802;28;20211;-92
2023/08/21 10:59:50;;;;;;;9.07;5.25;;;30.20;93.10;;;;;;5055916;28;20288;-91
2023/08/21 11:02:16;;;;;;;5.63;5.07;;;30.20;93.50;;;;;;5058280;28;20181;-92
2023/08/21 11:04:44;;;;;;;5.63;4.97;;;30.00;92.90;;;;;;5057098;28;20173;-92
2023/08/21 11:07:10;;;;;;;4.90;4.40;;;29.90;93.00;;;;;;5057165;28;20225;-92
2023/08/21 11:09:37;;;;;;;5.43;4.88;;;29.90;94.20;;;;;;5056248;28;20193;-92
2023/08/21 11:12:15;;;;;;;5.80;4.47;;;30.00;92.80;;;;;;5056036;28;20201;-93
2023/08/21 11:14:56;;;;;;;7.40;4.60;;;30.40;91.70;;;;;;5057907;28;20172;-91
2023/08/21 11:17:23;;;;;;;8.00;4.90;;;30.40;91.80;;;;;;5058207;28;20193;-91
2023/08/21 11:19:52;;;;;;;5.15;4.65;;;30.30;90.80;;;;;;5054986;28;20205;-91
2023/08/21 11:22:41;;;;;;;5.10;4.57;;;30.40;91.00;;;;;;5055402;28;20184;-91
2023/08/21 11:25:07;;;;;;;5.18;4.78;;;30.40;91.10;;;;;;5055829;28;20176;-90
2023/08/21 11:27:42;;;;;;;5.28;4.82;;;30.70;91.40;;;;;;5055805;28;20197;-90
2023/08/21 11:30:35;;;;;;;5.78;5.03;;;31.20;91.70;;;;;;5054649;28;20243;-90
2023/08/21 11:33:12;;;;;;;6.53;4.93;;;31.60;91.00;;;;;;5055317;28;20177;-92
2023/08/21 11:35:42;;;;;;;5.72;4.88;;;32.00;88.00;;;;;;5054715;28;20672;-92
2023/08/21 11:38:21;;;;;;;5.45;4.93;;;32.10;87.30;;;;;;5055708;28;20265;-92
2023/08/21 11:40:55;;;;;;;7.55;4.88;;;32.00;84.70;;;;;;5055020;28;20177;-92
2023/08/21 11:43:44;;;;;;;5.20;4.70;;;32.30;86.10;;;;;;5055497;28;20177;-92
2023/08/21 11:46:13;;;;;;;5.53;4.90;;;32.10;83.90;;;;;;5054672;28;20198;-92
2023/08/21 11:48:43;;;;;;;6.65;4.53;;;31.90;87.30;;;;;;5054722;28;20213;-92
2023/08/21 11:51:10;;;;;;;5.88;5.20;;;31.90;87.80;;;;;;5055459;28;20196;-92
2023/08/21 11:53:48;;;;;;;5.80;5.30;;;31.70;86.10;;;;;;5054446;28;20174;-92
2023/08/21 11:56:16;;;;;;;11.30;5.32;;;31.40;88.30;;;;;;5053995;28;20204;-92
2023/08/21 11:58:46;;;;;;;9.65;5.40;;;31.30;87.60;;;;;;5053865;28;20185;-93
2023/08/21 12:01:17;;;;;;;5.68;5.07;;;31.50;89.00;;;;;;5055946;28;20686;-90
2023/08/21 12:03:46;;;;;;;5.18;4.70;;;31.50;85.90;;;;;;5054418;28;20177;-92
2023/08/21 12:06:12;;;;;;;9.05;5.30;;;31.50;87.50;;;;;;5054339;28;20280;-92
2023/08/21 12:08:39;;;;;;;7.90;5.43;;;31.30;86.10;;;;;;5054921;28;20284;-92
2023/08/21 12:11:07;;;;;;;6.75;5.22;;;31.30;85.60;;;;;;5054341;28;20640;-92
2023/08/21 12:13:33;;;;;;;9.75;5.28;;;31.40;87.70;;;;;;5055014;28;20232;-92
2023/08/21 12:15:59;;;;;;;9.73;5.28;;;31.30;87.60;;;;;;5054841;28;20193;-90
2023/08/21 12:18:24;;;;;;;8.35;4.78;;;31.50;87.00;;;;;;5053900;28;20189;-90
2023/08/21 12:20:51;;;;;;;5.35;4.60;;;31.60;85.80;;;;;;5053269;28;20166;-91
2023/08/21 12:23:16;;;;;;;7.30;4.75;;;31.80;85.60;;;;;;5054863;28;20196;-90
2023/08/21 12:25:45;;;;;;;8.77;4.88;;;32.10;82.90;;;;;;5053833;28;20660;-90
2023/08/21 12:28:11;;;;;;;6.82;4.82;;;32.10;83.40;;;;;;5053944;28;20250;-90
2023/08/21 12:30:37;;;;;;;6.10;5.18;;;32.30;82.70;;;;;;5054356;28;20248;-90
2023/08/21 12:33:03;;;;;;;6.40;4.85;;;32.30;82.50;;;;;;5053476;28;20209;-90
2023/08/21 12:35:29;;;;;;;5.65;4.80;;;32.50;81.60;;;;;;5053672;28;20181;-89
2023/08/21 12:37:57;;;;;;;7.93;4.70;;;32.70;81.40;;;;;;5054108;28;20531;-90
2023/08/21 12:40:23;;;;;;;4.70;4.20;;;33.00;78.60;;;;;;5053701;28;20181;-90
2023/08/21 12:42:55;;;;;;;5.55;4.43;;;33.30;78.30;;;;;;5053126;28;20184;-90
2023/08/21 12:45:21;;;;;;;5.38;4.47;;;33.40;77.00;;;;;;5053872;28;20182;-90
2023/08/21 12:47:47;;;;;;;5.88;4.32;;;33.40;76.00;;;;;;5053259;28;20224;-90
2023/08/21 12:50:15;;;;;;;8.43;4.55;;;33.50;73.90;;;;;;5053576;28;20209;-91
2023/08/21 12:52:41;;;;;;;5.20;4.55;;;33.50;73.50;;;;;;5054277;28;20174;-90
2023/08/21 12:55:07;;;;;;;4.63;3.78;;;33.60;73.70;;;;;;5053459;28;20178;-90
2023/08/21 12:57:33;;;;;;;5.35;4.00;;;33.60;73.10;;;;;;5053231;28;20561;-90
2023/08/21 12:59:59;;;;;;;4.40;4.00;;;33.10;70.90;;;;;;5053469;28;20197;-90
2023/08/21 13:02:27;;;;;;;5.75;4.15;;;32.70;72.80;;;;;;5053237;28;20166;-90
2023/08/21 13:32:12;;;;;;;6.10;3.80;;;31.00;76.70;;;;;;5093713;28;20537;-90
2023/08/21 13:34:40;;;;;;;4.93;4.10;;;30.70;77.70;;;;;;5072765;28;20238;-90
2023/08/21 14:01:38;;;;;;;4.30;3.50;;;30.50;76.00;;;;;;4655027;30;20224;-91
2023/08/21 14:04:04;;;;;;;4.32;3.85;;;30.40;77.10;;;;;;4799889;29;20330;-90
2023/08/21 14:06:30;;;;;;;4.20;3.55;;;30.30;79.50;;;;;;5014805;28;20327;-90
2023/08/21 14:08:55;;;;;;;4.97;3.58;;;30.50;82.00;;;;;;5032015;28;20192;-90
2023/08/21 14:11:21;;;;;;;4.63;3.45;;;30.80;78.00;;;;;;5032067;28;20673;-90
2023/08/21 14:13:50;;;;;;;8.57;3.72;;;30.90;77.90;;;;;;5042963;28;20181;-88
2023/08/21 14:16:19;;;;;;;4.25;3.53;;;31.00;79.30;;;;;;5050313;28;20209;-87
2023/08/21 14:18:49;;;;;;;9.57;3.38;;;31.10;78.60;;;;;;5052711;28;20256;-88
2023/08/21 14:21:15;;;;;;;3.42;3.10;;;31.10;74.10;;;;;;5052060;28;20246;-88
2023/08/21 14:23:47;;;;;;;5.20;3.20;;;31.10;73.80;;;;;;5052547;28;20560;-87
2023/08/21 14:26:15;;;;;;;3.28;2.75;;;31.00;73.40;;;;;;5051900;28;20212;-87
2023/08/21 14:28:50;;;;;;;3.33;3.03;;;31.00;73.50;;;;;;5051683;28;20170;-87
2023/08/21 14:31:16;;;;;;;5.55;2.92;;;30.90;74.50;;;;;;5048917;28;20192;-88
2023/08/21 14:33:44;;;;;;;4.30;2.80;;;30.80;73.60;;;;;;5038686;28;20193;-88
2023/08/21 14:36:10;;;;;;;5.07;2.80;;;30.80;73.20;;;;;;5038338;28;20202;-91
2023/08/21 14:38:36;;;;;;;4.63;2.72;;;30.70;71.40;;;;;;5038601;28;20185;-91
2023/08/21 14:41:11;;;;;;;4.05;2.70;;;30.80;72.20;;;;;;5032006;28;20201;-87
2023/08/21 14:43:37;;;;;;;5.82;2.72;;;30.80;71.90;;;;;;5024116;28;20232;-87
2023/08/21 14:46:12;;;;;;;2.95;2.58;;;30.80;71.60;;;;;;5018370;28;20202;-87
2023/08/21 14:48:37;;;;;;;3.33;2.72;;;30.70;71.40;;;;;;5019125;28;20174;-88
2023/08/21 14:51:07;;;;;;;3.13;2.63;;;30.70;71.00;;;;;;5018411;28;20269;-89
2023/08/21 14:53:33;;;;;;;5.75;2.90;;;30.70;71.70;;;;;;5019103;28;20210;-88
2023/08/21 14:55:59;;;;;;;3.35;2.88;;;30.80;71.90;;;;;;5017919;28;20260;-88
2023/08/21 14:58:44;;;;;;;4.88;2.75;;;30.80;71.40;;;;;;5018562;28;20274;-87
2023/08/21 15:01:15;;;;;;;3.78;2.63;;;30.80;70.50;;;;;;5018487;28;20275;-87
2023/08/21 15:03:44;;;;;;;4.18;2.80;;;30.80;69.60;;;;;;5018742;28;20170;-88
2023/08/21 15:06:13;;;;;;;2.70;2.50;;;30.60;69.70;;;;;;5017906;28;20201;-87
2023/08/21 15:09:07;;;;;;;4.18;2.42;;;30.60;72.00;;;;;;5018105;28;20182;-88
2023/08/21 15:11:36;;;;;;;3.17;2.50;;;30.70;72.50;;;;;;5008808;28;20296;-88
2023/08/21 15:14:13;;;;;;;4.43;2.35;;;30.80;71.90;;;;;;5018518;28;20261;-88
2023/08/21 15:16:43;;;;;;;4.28;2.63;;;30.80;72.80;;;;;;5026326;28;20205;-89
2023/08/21 15:19:15;;;;;;;3.35;2.30;;;31.00;71.60;;;;;;5037955;28;20166;-89
2023/08/21 15:21:40;;;;;;;3.15;2.50;;;31.10;67.20;;;;;;5037465;28;20205;-89
2023/08/21 15:24:08;;;;;;;6.55;2.40;;;31.20;69.10;;;;;;5037323;28;20704;-89
2023/08/21 15:26:46;;;;;;;2.60;2.40;;;31.30;71.40;;;;;;5037547;28;20201;-87
2023/08/21 15:29:14;;;;;;;2.70;2.50;;;31.20;68.40;;;;;;5037586;28;20201;-88
2023/08/21 15:32:24;;;;;;;;;;;;;;;;;;;;;
2023/08/21 15:34:43;;;;;;;3.25;2.53;;;30.80;70.00;;;;;;5043541;28;20182;-88
2023/08/21 15:37:12;;;;;;;2.50;2.30;;;30.80;69.30;;;;;;5028803;28;20201;-88
2023/08/21 15:39:41;;;;;;;5.35;2.70;;;30.70;69.30;;;;;;5045662;28;20177;-88
2023/08/21 15:45:39;;;;;;;2.63;2.42;;;30.60;70.50;;;;;;4935950;28;20248;-88
2023/08/21 15:48:04;;;;;;;2.70;2.47;;;30.40;71.10;;;;;;5054364;28;20699;-88
2023/08/21 15:50:30;;;;;;;4.22;2.53;;;30.40;70.30;;;;;;5057307;28;20177;-88
2023/08/21 15:52:56;;;;;;;2.80;2.60;;;30.30;71.60;;;;;;5054373;28;20172;-87
2023/08/21 15:55:22;;;;;;;3.03;2.55;;;30.10;71.10;;;;;;5036633;28;20177;-88
2023/08/21 15:57:49;;;;;;;2.78;2.42;;;30.00;71.50;;;;;;5036965;28;20189;-88
2023/08/21 16:00:15;;;;;;;3.13;2.25;;;29.90;71.90;;;;;;5036636;28;20197;-88
2023/08/21 16:03:04;;;;;;;2.45;2.28;;;29.80;73.60;;;;;;5036453;28;20193;-88
2023/08/21 16:05:30;;;;;;;2.60;2.40;;;29.70;70.50;;;;;;5036784;28;20262;-88
2023/08/21 16:07:57;;;;;;;4.78;2.70;;;29.70;71.00;;;;;;5055182;28;20173;-88
2023/08/21 16:10:36;;;;;;;3.25;2.63;;;29.70;72.40;;;;;;5037231;28;20192;-92
2023/08/21 16:13:09;;;;;;;3.88;2.22;;;29.70;70.80;;;;;;5038496;28;20204;-91
2023/08/21 16:15:35;;;;;;;2.83;2.63;;;29.70;71.50;;;;;;5037502;28;20208;-91
2023/08/21 16:18:01;;;;;;;5.57;2.58;;;29.80;71.40;;;;;;5036493;28;20181;-91
2023/08/21 16:20:29;;;;;;;3.25;2.33;;;29.80;70.20;;;;;;5037087;28;20250;-91
2023/08/21 16:23:13;;;;;;;4.70;2.33;;;29.70;70.10;;;;;;5037004;28;20707;-91
2023/08/21 16:25:39;;;;;;;3.33;2.47;;;29.70;70.70;;;;;;5036505;28;20194;-91
2023/08/21 16:28:05;;;;;;;3.53;2.60;;;29.50;71.00;;;;;;5036808;28;20174;-91
2023/08/21 16:30:31;;;;;;;3.80;2.35;;;29.40;71.80;;;;;;5036541;28;20529;-91
2023/08/21 16:32:57;;;;;;;3.53;2.38;;;29.40;73.20;;;;;;5036268;28;20231;-91
2023/08/21 16:35:24;;;;;;;2.40;2.20;;;29.30;73.40;;;;;;5036798;28;20185;-91
2023/08/21 16:37:55;;;;;;;3.47;2.42;;;29.20;73.40;;;;;;5036501;28;20184;-91
2023/08/21 16:40:23;;;;;;;2.63;2.25;;;29.10;74.20;;;;;;5036002;28;20220;-91
2023/08/21 16:42:55;;;;;;;3.28;2.40;;;29.00;75.40;;;;;;5036141;28;20174;-91
2023/08/21 16:45:20;;;;;;;3.25;2.10;;;28.90;74.90;;;;;;5035886;28;20174;-92
2023/08/21 16:47:46;;;;;;;4.90;2.40;;;28.90;74.40;;;;;;5036823;28;20618;-91
2023/08/21 16:50:31;;;;;;;2.70;2.50;;;28.80;73.90;;;;;;5036197;28;20178;-91
2023/08/21 16:52:57;;;;;;;2.67;2.40;;;28.70;75.10;;;;;;5036178;28;20532;-91
2023/08/21 16:55:22;;;;;;;2.30;2.10;;;28.60;75.50;;;;;;5036250;28;20192;-91
2023/08/21 16:57:48;;;;;;;3.80;2.15;;;28.60;74.90;;;;;;5036789;28;20186;-91
2023/08/21 17:00:15;;;;;;;3.08;2.53;;;28.50;76.20;;;;;;5036057;28;20284;-91
2023/08/21 17:02:41;;;;;;;3.03;2.20;;;28.50;75.30;;;;;;5036646;28;20174;-89
2023/08/21 17:05:07;;;;;;;2.67;2.40;;;28.40;75.20;;;;;;5036468;28;20239;-88
2023/08/21 17:07:37;;;;;;;3.90;2.40;;;28.30;77.30;;;;;;5036093;28;20193;-91
2023/08/21 17:10:03;;;;;;;3.28;2.50;;;28.20;80.00;;;;;;5036617;28;20172;-91
2023/08/21 17:12:29;;;;;;;3.47;2.17;;;28.00;78.20;;;;;;5036584;28;20182;-91
2023/08/21 17:14:55;;;;;;;3.83;2.20;;;28.00;78.60;;;;;;5036669;28;20184;-91
2023/08/21 17:17:23;;;;;;;2.63;2.42;;;27.90;80.60;;;;;;5036058;28;20672;-91
2023/08/21 17:19:54;;;;;;;4.93;2.10;;;27.80;80.40;;;;;;5035513;28;20254;-91
2023/08/21 17:22:20;;;;;;;2.38;2.15;;;27.70;81.10;;;;;;5036458;28;20166;-91
2023/08/21 17:24:46;;;;;;;4.22;2.45;;;27.60;83.00;;;;;;5035644;28;20203;-92
2023/08/21 17:27:12;;;;;;;4.43;2.42;;;27.50;82.70;;;;;;5036448;28;20198;-93
2023/08/21 17:29:38;;;;;;;2.85;2.10;;;27.50;81.20;;;;;;5036135;28;20174;-92
2023/08/21 17:32:18;;;;;;;5.47;2.50;;;27.40;81.50;;;;;;5036179;28;20270;-88
2023/08/21 17:34:44;;;;;;;4.43;2.40;;;27.40;83.40;;;;;;5035347;28;20219;-89
2023/08/21 17:37:10;;;;;;;5.72;2.22;;;27.20;83.70;;;;;;5035175;28;20285;-88
2023/08/21 17:39:36;;;;;;;3.75;2.40;;;27.10;84.70;;;;;;5034195;28;20655;-88
2023/08/21 17:42:14;;;;;;;7.78;2.50;;;27.10;86.90;;;;;;5033736;28;20185;-90
2023/08/21 17:44:43;;;;;;;6.72;2.50;;;26.90;87.40;;;;;;5035617;28;20167;-90
2023/08/21 17:47:08;;;;;;;4.35;2.85;;;26.80;89.20;;;;;;5037611;28;20198;-90
2023/08/21 17:49:34;;;;;;;3.03;2.70;;;26.70;89.00;;;;;;5035246;28;20181;-89
2023/08/21 17:52:00;;;;;;;6.50;2.30;;;26.70;87.80;;;;;;5035328;28;20188;-90
2023/08/21 17:54:28;;;;;;;3.17;2.72;;;26.60;88.90;;;;;;5035762;28;20170;-90
2023/08/21 17:56:54;;;;;;;3.85;2.50;;;26.50;90.10;;;;;;5035167;28;20248;-90
2023/08/21 17:59:20;;;;;;;8.52;2.55;;;26.40;90.40;;;;;;5036117;28;20174;-90
2023/08/21 18:01:46;;;;;;;8.43;2.60;;;26.30;90.70;;;;;;5035552;28;20268;-90
2023/08/21 18:04:12;;;;;;;6.28;2.50;;;26.20;91.20;;;;;;5035110;28;20708;-90
2023/08/21 18:06:39;;;;;;;4.55;2.47;;;26.10;91.70;;;;;;5036063;28;20255;-90
2023/08/21 18:09:06;;;;;;;3.83;2.67;;;26.00;92.40;;;;;;5022424;28;20205;-89
2023/08/21 18:11:56;;;;;;;4.90;2.60;;;25.90;92.80;;;;;;5039400;28;20182;-91
2023/08/21 18:14:22;;;;;;;3.47;2.58;;;25.80;93.30;;;;;;5040009;28;20182;-91
2023/08/21 18:17:03;;;;;;;7.95;2.90;;;25.70;93.90;;;;;;5039470;28;20213;-89
2023/08/21 18:19:29;;;;;;;9.80;2.50;;;25.50;94.50;;;;;;5038772;28;20177;-89
2023/08/21 18:21:55;;;;;;;6.90;2.85;;;25.40;94.80;;;;;;5038979;28;20182;-89
2023/08/21 18:24:21;;;;;;;5.95;2.70;;;25.40;95.10;;;;;;5039041;28;20658;-89
2023/08/21 18:26:46;;;;;;;5.80;2.50;;;25.30;95.30;;;;;;5038921;28;20275;-89
2023/08/21 18:29:12;;;;;;;6.85;2.78;;;25.20;95.60;;;;;;5038562;28;20178;-88
2023/08/21 18:31:38;;;;;;;3.25;2.95;;;25.10;95.80;;;;;;5032048;28;20620;-88
2023/08/21 18:34:04;;;;;;;3.25;3.03;;;25.00;96.10;;;;;;5029440;28;20204;-88
2023/08/21 18:36:32;;;;;;;6.03;3.10;;;25.00;96.30;;;;;;5027050;28;20202;-88
2023/08/21 18:38:58;;;;;;;3.17;2.88;;;24.90;96.40;;;;;;5023970;28;20230;-88
2023/08/21 18:41:28;;;;;;;6.07;3.10;;;24.80;96.70;;;;;;5018742;28;20679;-88
2023/08/21 18:43:57;;;;;;;3.22;2.67;;;24.80;96.80;;;;;;5018390;28;20179;-88
2023/08/21 18:46:23;;;;;;;5.30;2.78;;;24.60;97.40;;;;;;5018236;28;20218;-88
2023/08/21 18:48:51;;;;;;;3.78;2.95;;;24.60;97.10;;;;;;5018645;28;20179;-88
2023/08/21 18:51:18;;;;;;;3.30;2.88;;;24.50;97.30;;;;;;5019038;28;20208;-88
2023/08/21 18:53:43;;;;;;;6.50;3.03;;;24.50;97.50;;;;;;5019353;28;20187;-88
2023/08/21 18:56:09;;;;;;;5.45;2.88;;;24.40;97.80;;;;;;5027384;28;20210;-88
2023/08/21 18:58:52;;;;;;;5.95;3.15;;;24.40;98.00;;;;;;5037045;28;20236;-88
2023/08/21 19:01:17;;;;;;;7.80;2.90;;;24.30;98.20;;;;;;5036788;28;20214;-88
2023/08/21 19:03:43;;;;;;;5.30;2.70;;;24.30;98.10;;;;;;5037915;28;20198;-88
2023/08/21 19:06:09;;;;;;;3.60;3.17;;;24.20;98.40;;;;;;5037633;28;20193;-88
2023/08/21 19:08:35;;;;;;;5.13;3.08;;;24.10;98.70;;;;;;5038137;28;20235;-88
2023/08/21 19:11:01;;;;;;;6.53;3.10;;;24.10;98.80;;;;;;5038101;28;20235;-88
2023/08/21 19:13:27;;;;;;;5.07;3.10;;;24.00;98.90;;;;;;5037906;28;20179;-88
2023/08/21 19:15:59;;;;;;;4.30;2.80;;;24.00;99.10;;;;;;5038228;28;20194;-88
2023/08/21 19:18:25;;;;;;;3.90;2.88;;;23.90;99.40;;;;;;5037505;28;20233;-88
2023/08/21 19:20:50;;;;;;;6.63;3.10;;;23.80;99.50;;;;;;5018225;28;20286;-88
2023/08/21 19:23:16;;;;;;;4.50;3.13;;;23.80;99.60;;;;;;5018519;28;20197;-90
2023/08/21 19:25:48;;;;;;;4.22;2.72;;;23.80;99.80;;;;;;5017618;28;20199;-90
2023/08/21 19:28:15;;;;;;;8.75;3.45;;;23.80;99.90;;;;;;5017900;28;20182;-90
2023/08/21 19:30:41;;;;;;;4.22;2.90;;;23.70;99.90;;;;;;5017295;28;20194;-90
2023/08/21 19:33:08;;;;;;;7.22;3.10;;;23.70;99.90;;;;;;5017719;28;20186;-90
2023/08/21 19:35:34;;;;;;;6.28;3.50;;;23.60;99.90;;;;;;5018035;28;20273;-90
2023/08/21 19:38:00;;;;;;;6.05;3.58;;;23.60;99.90;;;;;;5018009;28;20183;-89
2023/08/21 19:40:26;;;;;;;10.68;4.85;;;23.60;99.90;;;;;;5018583;28;20205;-90
2023/08/21 19:42:51;;;;;;;12.52;5.15;;;23.40;99.90;;;;;;5017242;28;20705;-90
2023/08/21 19:45:19;;;;;;;9.90;5.65;;;23.30;99.90;;;;;;5017374;28;20174;-90